sensor_id;sensor_type;location;lat;lon;timestamp;pressure;altitude;pressure_sealevel;temperature;humidity
78407;BME280;67692;51.074;-1.790;2023-04-15T00:02:16;100492.13;;;5.36;83.13
78407;BME280;67692;51.074;-1.790;2023-04-15T00:04:43;100483.50;;;5.37;83.41
78407;BME280;67692;51.074;-1.790;2023-04-15T00:07:11;100475.94;;;5.34;83.33
78407;BME280;67692;51.074;-1.790;2023-04-15T00:09:39;100479.66;;;5.29;82.88
78407;BME280;67692;51.074;-1.790;2023-04-15T00:12:06;100487.34;;;5.29;83.64
78407;BME280;67692;51.074;-1.790;2023-04-15T00:14:33;100487.19;;;5.32;83.09
78407;BME280;67692;51.074;-1.790;2023-04-15T00:17:00;100483.88;;;5.30;82.94
78407;BME280;67692;51.074;-1.790;2023-04-15T00:19:27;100485.09;;;5.23;82.88
78407;BME280;67692;51.074;-1.790;2023-04-15T00:21:54;100487.69;;;5.23;83.14
78407;BME280;67692;51.074;-1.790;2023-04-15T00:24:23;100495.81;;;5.31;83.34
78407;BME280;67692;51.074;-1.790;2023-04-15T00:26:49;100497.47;;;5.32;83.19
78407;BME280;67692;51.074;-1.790;2023-04-15T00:29:16;100500.34;;;5.26;83.14
78407;BME280;67692;51.074;-1.790;2023-04-15T00:31:42;100496.97;;;5.25;83.16
78407;BME280;67692;51.074;-1.790;2023-04-15T00:34:09;100500.63;;;5.20;83.86
78407;BME280;67692;51.074;-1.790;2023-04-15T00:36:36;100499.28;;;5.30;83.55
78407;BME280;67692;51.074;-1.790;2023-04-15T00:39:03;100501.41;;;5.22;83.53
78407;BME280;67692;51.074;-1.790;2023-04-15T00:41:31;100508.28;;;5.21;83.82
78407;BME280;67692;51.074;-1.790;2023-04-15T00:43:58;100506.69;;;5.19;84.11
78407;BME280;67692;51.074;-1.790;2023-04-15T00:46:27;100508.50;;;5.17;83.58
78407;BME280;67692;51.074;-1.790;2023-04-15T00:48:54;100504.94;;;5.19;82.97
78407;BME280;67692;51.074;-1.790;2023-04-15T00:51:21;100512.81;;;5.16;83.62
78407;BME280;67692;51.074;-1.790;2023-04-15T00:53:48;100523.00;;;5.18;83.61
78407;BME280;67692;51.074;-1.790;2023-04-15T00:56:16;100513.63;;;5.17;83.23
78407;BME280;67692;51.074;-1.790;2023-04-15T00:58:44;100520.59;;;5.15;83.75
78407;BME280;67692;51.074;-1.790;2023-04-15T01:01:10;100524.06;;;5.14;83.57
78407;BME280;67692;51.074;-1.790;2023-04-15T01:03:37;100522.09;;;5.19;83.25
78407;BME280;67692;51.074;-1.790;2023-04-15T01:06:04;100524.56;;;5.20;82.79
78407;BME280;67692;51.074;-1.790;2023-04-15T01:08:30;100524.97;;;5.13;83.13
78407;BME280;67692;51.074;-1.790;2023-04-15T01:10:58;100539.75;;;5.07;83.34
78407;BME280;67692;51.074;-1.790;2023-04-15T01:13:28;100542.94;;;5.13;83.05
78407;BME280;67692;51.074;-1.790;2023-04-15T01:15:57;100549.56;;;5.17;83.34
78407;BME280;67692;51.074;-1.790;2023-04-15T01:18:24;100550.47;;;5.16;83.36
78407;BME280;67692;51.074;-1.790;2023-04-15T01:20:51;100561.66;;;5.15;82.95
78407;BME280;67692;51.074;-1.790;2023-04-15T01:23:18;100571.06;;;5.14;83.07
78407;BME280;67692;51.074;-1.790;2023-04-15T01:25:48;100584.00;;;5.13;83.49
78407;BME280;67692;51.074;-1.790;2023-04-15T01:28:15;100593.94;;;5.19;83.34
78407;BME280;67692;51.074;-1.790;2023-04-15T01:30:41;100593.00;;;5.21;83.06
78407;BME280;67692;51.074;-1.790;2023-04-15T01:33:09;100598.31;;;5.17;83.17
78407;BME280;67692;51.074;-1.790;2023-04-15T01:35:36;100597.41;;;5.18;83.42
78407;BME280;67692;51.074;-1.790;2023-04-15T01:38:05;100603.31;;;5.20;83.25
78407;BME280;67692;51.074;-1.790;2023-04-15T01:40:32;100610.72;;;5.26;82.68
78407;BME280;67692;51.074;-1.790;2023-04-15T01:43:00;100620.31;;;5.22;83.41
78407;BME280;67692;51.074;-1.790;2023-04-15T01:45:26;100610.06;;;5.22;83.24
78407;BME280;67692;51.074;-1.790;2023-04-15T01:47:53;100625.66;;;5.18;83.38
78407;BME280;67692;51.074;-1.790;2023-04-15T01:50:20;100623.09;;;5.18;83.06
78407;BME280;67692;51.074;-1.790;2023-04-15T01:52:47;100625.56;;;5.19;82.96
78407;BME280;67692;51.074;-1.790;2023-04-15T01:55:13;100632.44;;;5.19;83.10
78407;BME280;67692;51.074;-1.790;2023-04-15T01:57:40;100633.59;;;5.13;82.94
78407;BME280;67692;51.074;-1.790;2023-04-15T02:00:09;100647.09;;;5.17;83.03
78407;BME280;67692;51.074;-1.790;2023-04-15T02:02:35;100643.03;;;5.13;83.44
78407;BME280;67692;51.074;-1.790;2023-04-15T02:05:03;100643.25;;;5.08;82.67
78407;BME280;67692;51.074;-1.790;2023-04-15T02:07:30;100652.38;;;5.14;82.88
78407;BME280;67692;51.074;-1.790;2023-04-15T02:09:57;100642.41;;;5.07;82.53
78407;BME280;67692;51.074;-1.790;2023-04-15T02:12:24;100648.72;;;5.00;83.15
78407;BME280;67692;51.074;-1.790;2023-04-15T02:14:51;100654.47;;;5.05;82.94
78407;BME280;67692;51.074;-1.790;2023-04-15T02:17:19;100663.06;;;5.04;83.26
78407;BME280;67692;51.074;-1.790;2023-04-15T02:19:46;100670.69;;;5.06;83.00
78407;BME280;67692;51.074;-1.790;2023-04-15T02:22:13;100663.50;;;4.95;83.06
78407;BME280;67692;51.074;-1.790;2023-04-15T02:24:43;100663.97;;;5.03;83.14
78407;BME280;67692;51.074;-1.790;2023-04-15T02:27:10;100663.78;;;5.08;82.56
78407;BME280;67692;51.074;-1.790;2023-04-15T02:29:37;100673.47;;;5.01;83.25
78407;BME280;67692;51.074;-1.790;2023-04-15T02:32:04;100676.94;;;5.00;82.69
78407;BME280;67692;51.074;-1.790;2023-04-15T02:34:32;100668.50;;;4.98;82.64
78407;BME280;67692;51.074;-1.790;2023-04-15T02:36:58;100675.81;;;5.06;82.79
78407;BME280;67692;51.074;-1.790;2023-04-15T02:39:25;100666.53;;;5.03;82.74
78407;BME280;67692;51.074;-1.790;2023-04-15T02:41:52;100683.88;;;4.98;82.76
78407;BME280;67692;51.074;-1.790;2023-04-15T02:44:19;100679.59;;;4.99;82.51
78407;BME280;67692;51.074;-1.790;2023-04-15T02:46:48;100685.53;;;4.99;83.24
78407;BME280;67692;51.074;-1.790;2023-04-15T02:49:16;100690.81;;;4.96;83.09
78407;BME280;67692;51.074;-1.790;2023-04-15T02:51:44;100694.44;;;4.92;83.17
78407;BME280;67692;51.074;-1.790;2023-04-15T02:54:13;100684.78;;;4.97;83.12
78407;BME280;67692;51.074;-1.790;2023-04-15T02:56:40;100693.25;;;4.99;82.59
78407;BME280;67692;51.074;-1.790;2023-04-15T02:59:07;100694.28;;;4.95;82.67
78407;BME280;67692;51.074;-1.790;2023-04-15T03:01:33;100693.88;;;4.86;82.93
78407;BME280;67692;51.074;-1.790;2023-04-15T03:04:00;100693.72;;;4.89;82.62
78407;BME280;67692;51.074;-1.790;2023-04-15T03:06:27;100696.38;;;4.87;82.64
78407;BME280;67692;51.074;-1.790;2023-04-15T03:08:55;100705.31;;;4.97;82.41
78407;BME280;67692;51.074;-1.790;2023-04-15T03:11:22;100708.09;;;4.93;82.86
78407;BME280;67692;51.074;-1.790;2023-04-15T03:13:48;100717.38;;;4.95;83.20
78407;BME280;67692;51.074;-1.790;2023-04-15T03:16:15;100716.34;;;4.99;82.92
78407;BME280;67692;51.074;-1.790;2023-04-15T03:18:41;100727.50;;;4.98;82.16
78407;BME280;67692;51.074;-1.790;2023-04-15T03:21:08;100732.84;;;4.94;82.69
78407;BME280;67692;51.074;-1.790;2023-04-15T03:23:35;100732.97;;;4.91;82.13
78407;BME280;67692;51.074;-1.790;2023-04-15T03:26:03;100747.81;;;4.84;82.85
78407;BME280;67692;51.074;-1.790;2023-04-15T03:28:30;100748.97;;;4.77;82.65
78407;BME280;67692;51.074;-1.790;2023-04-15T03:30:57;100754.00;;;4.80;82.57
78407;BME280;67692;51.074;-1.790;2023-04-15T03:33:24;100756.56;;;4.80;82.46
78407;BME280;67692;51.074;-1.790;2023-04-15T03:35:51;100759.22;;;4.77;82.52
78407;BME280;67692;51.074;-1.790;2023-04-15T03:38:18;100768.25;;;4.86;82.25
78407;BME280;67692;51.074;-1.790;2023-04-15T03:40:45;100782.91;;;4.84;82.04
78407;BME280;67692;51.074;-1.790;2023-04-15T03:43:14;100788.31;;;4.96;81.46
78407;BME280;67692;51.074;-1.790;2023-04-15T03:45:40;100797.06;;;4.92;82.39
78407;BME280;67692;51.074;-1.790;2023-04-15T03:48:07;100788.56;;;4.90;82.21
78407;BME280;67692;51.074;-1.790;2023-04-15T03:50:34;100782.44;;;4.94;81.90
78407;BME280;67692;51.074;-1.790;2023-04-15T03:53:00;100790.25;;;4.91;82.08
78407;BME280;67692;51.074;-1.790;2023-04-15T03:55:27;100789.41;;;4.91;81.37
78407;BME280;67692;51.074;-1.790;2023-04-15T03:57:53;100793.59;;;4.93;81.82
78407;BME280;67692;51.074;-1.790;2023-04-15T04:00:22;100797.19;;;4.89;81.55
78407;BME280;67692;51.074;-1.790;2023-04-15T04:02:48;100798.97;;;4.87;82.05
78407;BME280;67692;51.074;-1.790;2023-04-15T04:05:15;100804.63;;;4.95;82.38
78407;BME280;67692;51.074;-1.790;2023-04-15T04:07:42;100803.72;;;4.96;81.73
78407;BME280;67692;51.074;-1.790;2023-04-15T04:10:09;100800.41;;;4.94;82.17
78407;BME280;67692;51.074;-1.790;2023-04-15T04:12:36;100803.66;;;4.98;81.90
78407;BME280;67692;51.074;-1.790;2023-04-15T04:15:03;100806.28;;;4.96;81.46
78407;BME280;67692;51.074;-1.790;2023-04-15T04:17:31;100813.53;;;4.87;81.69
78407;BME280;67692;51.074;-1.790;2023-04-15T04:19:57;100815.06;;;4.91;81.46
78407;BME280;67692;51.074;-1.790;2023-04-15T04:22:24;100816.94;;;4.87;81.63
78407;BME280;67692;51.074;-1.790;2023-04-15T04:24:50;100820.84;;;4.75;81.99
78407;BME280;67692;51.074;-1.790;2023-04-15T04:27:17;100831.94;;;4.76;82.02
78407;BME280;67692;51.074;-1.790;2023-04-15T04:29:44;100836.06;;;4.80;81.42
78407;BME280;67692;51.074;-1.790;2023-04-15T04:32:12;100842.94;;;4.80;82.15
78407;BME280;67692;51.074;-1.790;2023-04-15T04:34:39;100846.44;;;4.77;81.79
78407;BME280;67692;51.074;-1.790;2023-04-15T04:37:06;100850.69;;;4.78;81.82
78407;BME280;67692;51.074;-1.790;2023-04-15T04:39:33;100850.94;;;4.72;82.00
78407;BME280;67692;51.074;-1.790;2023-04-15T04:42:00;100863.53;;;4.78;82.13
78407;BME280;67692;51.074;-1.790;2023-04-15T04:44:27;100866.34;;;4.72;82.10
78407;BME280;67692;51.074;-1.790;2023-04-15T04:46:53;100868.69;;;4.76;82.39
78407;BME280;67692;51.074;-1.790;2023-04-15T04:49:20;100876.34;;;4.78;82.04
78407;BME280;67692;51.074;-1.790;2023-04-15T04:51:48;100873.41;;;4.67;82.23
78407;BME280;67692;51.074;-1.790;2023-04-15T04:54:15;100874.38;;;4.64;82.46
78407;BME280;67692;51.074;-1.790;2023-04-15T04:56:41;100872.63;;;4.65;82.20
78407;BME280;67692;51.074;-1.790;2023-04-15T04:59:08;100880.06;;;4.71;82.17
78407;BME280;67692;51.074;-1.790;2023-04-15T05:01:35;100883.13;;;4.59;82.49
78407;BME280;67692;51.074;-1.790;2023-04-15T05:04:01;100897.47;;;4.63;82.33
78407;BME280;67692;51.074;-1.790;2023-04-15T05:06:29;100895.56;;;4.68;82.40
78407;BME280;67692;51.074;-1.790;2023-04-15T05:08:57;100903.34;;;4.66;81.81
78407;BME280;67692;51.074;-1.790;2023-04-15T05:11:23;100913.28;;;4.74;81.89
78407;BME280;67692;51.074;-1.790;2023-04-15T05:13:50;100912.28;;;4.78;82.04
78407;BME280;67692;51.074;-1.790;2023-04-15T05:16:17;100919.91;;;4.80;82.89
78407;BME280;67692;51.074;-1.790;2023-04-15T05:18:44;100925.13;;;4.76;82.09
78407;BME280;67692;51.074;-1.790;2023-04-15T05:21:10;100926.22;;;4.71;81.46
78407;BME280;67692;51.074;-1.790;2023-04-15T05:23:37;100934.25;;;4.63;81.64
78407;BME280;67692;51.074;-1.790;2023-04-15T05:26:05;100942.88;;;4.61;82.13
78407;BME280;67692;51.074;-1.790;2023-04-15T05:28:32;100950.56;;;4.61;81.94
78407;BME280;67692;51.074;-1.790;2023-04-15T05:30:58;100952.84;;;4.68;81.76
78407;BME280;67692;51.074;-1.790;2023-04-15T05:33:25;100967.75;;;4.81;81.05
78407;BME280;67692;51.074;-1.790;2023-04-15T05:35:52;100971.31;;;4.76;81.75
78407;BME280;67692;51.074;-1.790;2023-04-15T05:38:19;100971.69;;;4.67;81.11
78407;BME280;67692;51.074;-1.790;2023-04-15T05:40:45;100984.75;;;4.61;81.54
78407;BME280;67692;51.074;-1.790;2023-04-15T05:43:13;100985.56;;;4.62;81.82
78407;BME280;67692;51.074;-1.790;2023-04-15T05:45:40;100992.16;;;4.69;81.49
78407;BME280;67692;51.074;-1.790;2023-04-15T05:48:06;100998.53;;;4.59;81.67
78407;BME280;67692;51.074;-1.790;2023-04-15T05:50:33;101007.03;;;4.59;81.62
78407;BME280;67692;51.074;-1.790;2023-04-15T05:53:00;101010.31;;;4.63;81.17
78407;BME280;67692;51.074;-1.790;2023-04-15T05:55:27;101021.19;;;4.69;81.28
78407;BME280;67692;51.074;-1.790;2023-04-15T05:57:54;101019.19;;;4.76;81.21
78407;BME280;67692;51.074;-1.790;2023-04-15T06:00:22;101034.50;;;4.79;81.52
78407;BME280;67692;51.074;-1.790;2023-04-15T06:02:48;101029.44;;;4.77;80.94
78407;BME280;67692;51.074;-1.790;2023-04-15T06:05:15;101035.41;;;4.78;80.99
78407;BME280;67692;51.074;-1.790;2023-04-15T06:07:42;101039.56;;;4.81;81.41
78407;BME280;67692;51.074;-1.790;2023-04-15T06:10:09;101037.06;;;4.79;81.49
78407;BME280;67692;51.074;-1.790;2023-04-15T06:12:36;101045.47;;;4.83;81.15
78407;BME280;67692;51.074;-1.790;2023-04-15T06:15:02;101051.56;;;4.80;81.04
78407;BME280;67692;51.074;-1.790;2023-04-15T06:17:32;101052.13;;;4.87;81.51
78407;BME280;67692;51.074;-1.790;2023-04-15T06:19:59;101046.03;;;4.89;81.35
78407;BME280;67692;51.074;-1.790;2023-04-15T06:22:25;101051.09;;;4.92;81.02
78407;BME280;67692;51.074;-1.790;2023-04-15T06:24:52;101065.31;;;4.99;80.53
78407;BME280;67692;51.074;-1.790;2023-04-15T06:27:18;101065.19;;;5.02;80.95
78407;BME280;67692;51.074;-1.790;2023-04-15T06:29:45;101072.13;;;5.00;81.12
78407;BME280;67692;51.074;-1.790;2023-04-15T06:32:12;101080.38;;;5.08;81.22
78407;BME280;67692;51.074;-1.790;2023-04-15T06:34:40;101081.84;;;5.14;81.69
78407;BME280;67692;51.074;-1.790;2023-04-15T06:37:07;101087.63;;;5.19;80.76
78407;BME280;67692;51.074;-1.790;2023-04-15T06:39:34;101091.69;;;5.25;80.66
78407;BME280;67692;51.074;-1.790;2023-04-15T06:42:01;101099.38;;;5.25;81.13
78407;BME280;67692;51.074;-1.790;2023-04-15T06:44:28;101097.41;;;5.31;80.70
78407;BME280;67692;51.074;-1.790;2023-04-15T06:46:55;101106.66;;;5.35;81.32
78407;BME280;67692;51.074;-1.790;2023-04-15T06:49:22;101100.50;;;5.40;81.27
78407;BME280;67692;51.074;-1.790;2023-04-15T06:51:50;101106.13;;;5.48;80.34
78407;BME280;67692;51.074;-1.790;2023-04-15T06:54:17;101107.88;;;5.47;80.60
78407;BME280;67692;51.074;-1.790;2023-04-15T06:56:43;101106.88;;;5.51;80.76
78407;BME280;67692;51.074;-1.790;2023-04-15T06:59:10;101108.41;;;5.55;80.87
78407;BME280;67692;51.074;-1.790;2023-04-15T07:01:37;101122.09;;;5.56;80.14
78407;BME280;67692;51.074;-1.790;2023-04-15T07:04:03;101130.25;;;5.65;80.58
78407;BME280;67692;51.074;-1.790;2023-04-15T07:06:30;101126.66;;;5.70;80.94
78407;BME280;67692;51.074;-1.790;2023-04-15T07:08:59;101142.56;;;5.78;80.59
78407;BME280;67692;51.074;-1.790;2023-04-15T07:11:26;101149.28;;;5.82;79.93
78407;BME280;67692;51.074;-1.790;2023-04-15T07:13:52;101149.19;;;5.83;80.42
78407;BME280;67692;51.074;-1.790;2023-04-15T07:16:19;101145.66;;;5.86;79.95
78407;BME280;67692;51.074;-1.790;2023-04-15T07:18:46;101157.38;;;5.93;80.78
78407;BME280;67692;51.074;-1.790;2023-04-15T07:21:12;101168.25;;;6.00;80.33
78407;BME280;67692;51.074;-1.790;2023-04-15T07:23:39;101164.78;;;6.01;80.25
78407;BME280;67692;51.074;-1.790;2023-04-15T07:26:07;101171.44;;;6.05;80.46
78407;BME280;67692;51.074;-1.790;2023-04-15T07:28:35;101181.63;;;6.08;80.35
78407;BME280;67692;51.074;-1.790;2023-04-15T07:31:02;101188.88;;;6.18;79.96
78407;BME280;67692;51.074;-1.790;2023-04-15T07:33:28;101183.72;;;6.18;80.79
78407;BME280;67692;51.074;-1.790;2023-04-15T07:35:55;101188.03;;;6.18;80.12
78407;BME280;67692;51.074;-1.790;2023-04-15T07:38:21;101184.25;;;6.06;79.60
78407;BME280;67692;51.074;-1.790;2023-04-15T07:40:48;101195.94;;;6.13;80.91
78407;BME280;67692;51.074;-1.790;2023-04-15T07:43:16;101197.22;;;6.23;80.85
78407;BME280;67692;51.074;-1.790;2023-04-15T07:45:44;101198.91;;;6.24;80.69
78407;BME280;67692;51.074;-1.790;2023-04-15T07:48:11;101199.81;;;6.23;79.95
78407;BME280;67692;51.074;-1.790;2023-04-15T07:50:38;101197.78;;;6.30;80.49
78407;BME280;67692;51.074;-1.790;2023-04-15T07:53:05;101201.97;;;6.33;80.27
78407;BME280;67692;51.074;-1.790;2023-04-15T07:55:32;101205.88;;;6.41;80.80
78407;BME280;67692;51.074;-1.790;2023-04-15T07:57:58;101221.78;;;6.51;79.91
78407;BME280;67692;51.074;-1.790;2023-04-15T08:00:27;101222.19;;;6.61;80.00
78407;BME280;67692;51.074;-1.790;2023-04-15T08:02:55;101219.53;;;6.62;80.51
78407;BME280;67692;51.074;-1.790;2023-04-15T08:05:23;101227.78;;;6.70;79.84
78407;BME280;67692;51.074;-1.790;2023-04-15T08:07:50;101235.13;;;6.78;79.95
78407;BME280;67692;51.074;-1.790;2023-04-15T08:10:17;101236.94;;;6.76;79.35
78407;BME280;67692;51.074;-1.790;2023-04-15T08:12:43;101225.44;;;6.84;78.80
78407;BME280;67692;51.074;-1.790;2023-04-15T08:15:13;101234.97;;;6.82;78.98
78407;BME280;67692;51.074;-1.790;2023-04-15T08:17:42;101239.88;;;6.87;79.10
78407;BME280;67692;51.074;-1.790;2023-04-15T08:20:09;101233.50;;;6.96;78.79
78407;BME280;67692;51.074;-1.790;2023-04-15T08:22:36;101242.91;;;6.97;78.60
78407;BME280;67692;51.074;-1.790;2023-04-15T08:25:04;101245.19;;;7.03;78.93
78407;BME280;67692;51.074;-1.790;2023-04-15T08:27:31;101261.31;;;7.06;78.59
78407;BME280;67692;51.074;-1.790;2023-04-15T08:29:57;101270.09;;;7.02;78.46
78407;BME280;67692;51.074;-1.790;2023-04-15T08:32:24;101268.50;;;7.00;77.68
78407;BME280;67692;51.074;-1.790;2023-04-15T08:34:52;101273.44;;;7.04;78.12
78407;BME280;67692;51.074;-1.790;2023-04-15T08:37:19;101279.09;;;7.12;77.27
78407;BME280;67692;51.074;-1.790;2023-04-15T08:39:47;101287.28;;;7.21;77.35
78407;BME280;67692;51.074;-1.790;2023-04-15T08:42:16;101286.25;;;7.25;77.08
78407;BME280;67692;51.074;-1.790;2023-04-15T08:44:42;101292.56;;;7.36;76.18
78407;BME280;67692;51.074;-1.790;2023-04-15T08:47:12;101297.53;;;7.41;75.50
78407;BME280;67692;51.074;-1.790;2023-04-15T08:49:39;101308.22;;;7.51;75.45
78407;BME280;67692;51.074;-1.790;2023-04-15T08:52:08;101307.47;;;7.49;74.83
78407;BME280;67692;51.074;-1.790;2023-04-15T08:54:35;101312.44;;;7.53;74.52
78407;BME280;67692;51.074;-1.790;2023-04-15T08:57:03;101321.47;;;7.62;75.14
78407;BME280;67692;51.074;-1.790;2023-04-15T08:59:29;101327.72;;;7.75;74.45
78407;BME280;67692;51.074;-1.790;2023-04-15T09:01:56;101327.88;;;7.72;74.73
78407;BME280;67692;51.074;-1.790;2023-04-15T09:04:23;101328.97;;;7.85;75.32
78407;BME280;67692;51.074;-1.790;2023-04-15T09:06:50;101338.06;;;7.92;75.11
78407;BME280;67692;51.074;-1.790;2023-04-15T09:09:18;101334.66;;;7.92;75.05
78407;BME280;67692;51.074;-1.790;2023-04-15T09:11:45;101337.78;;;7.98;73.76
78407;BME280;67692;51.074;-1.790;2023-04-15T09:14:14;101338.81;;;7.94;74.19
78407;BME280;67692;51.074;-1.790;2023-04-15T09:16:56;101345.03;;;7.90;73.32
78407;BME280;67692;51.074;-1.790;2023-04-15T09:19:23;101340.72;;;7.91;73.31
78407;BME280;67692;51.074;-1.790;2023-04-15T09:21:51;101340.28;;;8.00;72.57
78407;BME280;67692;51.074;-1.790;2023-04-15T09:24:20;101337.97;;;8.13;73.11
78407;BME280;67692;51.074;-1.790;2023-04-15T09:26:47;101341.91;;;8.20;72.87
78407;BME280;67692;51.074;-1.790;2023-04-15T09:29:17;101345.44;;;8.36;73.33
78407;BME280;67692;51.074;-1.790;2023-04-15T09:31:44;101348.31;;;8.64;73.55
78407;BME280;67692;51.074;-1.790;2023-04-15T09:34:10;101355.78;;;8.71;73.22
78407;BME280;67692;51.074;-1.790;2023-04-15T09:36:52;101379.28;;;8.82;72.08
78407;BME280;67692;51.074;-1.790;2023-04-15T09:39:20;101366.03;;;8.72;72.29
78407;BME280;67692;51.074;-1.790;2023-04-15T09:42:03;101376.88;;;8.61;71.13
78407;BME280;67692;51.074;-1.790;2023-04-15T09:44:30;101376.97;;;8.43;72.52
78407;BME280;67692;51.074;-1.790;2023-04-15T09:46:56;101383.94;;;8.41;71.85
78407;BME280;67692;51.074;-1.790;2023-04-15T09:49:23;101374.56;;;8.38;72.74
78407;BME280;67692;51.074;-1.790;2023-04-15T09:51:50;101385.69;;;8.40;71.72
78407;BME280;67692;51.074;-1.790;2023-04-15T09:54:18;101392.00;;;8.33;72.95
78407;BME280;67692;51.074;-1.790;2023-04-15T09:56:46;101400.19;;;8.60;71.21
78407;BME280;67692;51.074;-1.790;2023-04-15T09:59:12;101400.25;;;8.76;71.86
78407;BME280;67692;51.074;-1.790;2023-04-15T10:01:39;101408.63;;;8.98;70.72
78407;BME280;67692;51.074;-1.790;2023-04-15T10:04:07;101415.72;;;9.10;70.39
78407;BME280;67692;51.074;-1.790;2023-04-15T10:06:35;101422.09;;;9.20;68.16
78407;BME280;67692;51.074;-1.790;2023-04-15T10:09:02;101416.09;;;9.20;69.53
78407;BME280;67692;51.074;-1.790;2023-04-15T10:11:29;101426.34;;;9.21;69.45
78407;BME280;67692;51.074;-1.790;2023-04-15T10:13:57;101433.25;;;9.21;69.86
78407;BME280;67692;51.074;-1.790;2023-04-15T10:16:26;101431.16;;;9.12;68.54
78407;BME280;67692;51.074;-1.790;2023-04-15T10:18:55;101433.34;;;9.19;69.04
78407;BME280;67692;51.074;-1.790;2023-04-15T10:21:21;101443.75;;;9.18;67.24
78407;BME280;67692;51.074;-1.790;2023-04-15T10:23:49;101439.19;;;9.23;68.28
78407;BME280;67692;51.074;-1.790;2023-04-15T10:26:16;101443.72;;;9.35;68.13
78407;BME280;67692;51.074;-1.790;2023-04-15T10:28:43;101459.22;;;9.35;68.02
78407;BME280;67692;51.074;-1.790;2023-04-15T10:31:13;101456.84;;;9.48;67.11
78407;BME280;67692;51.074;-1.790;2023-04-15T10:33:40;101457.63;;;9.66;66.77
78407;BME280;67692;51.074;-1.790;2023-04-15T10:36:08;101463.81;;;9.63;65.78
78407;BME280;67692;51.074;-1.790;2023-04-15T10:38:37;101477.56;;;9.64;66.79
78407;BME280;67692;51.074;-1.790;2023-04-15T10:41:14;101472.19;;;9.51;67.74
78407;BME280;67692;51.074;-1.790;2023-04-15T10:43:46;101476.13;;;9.25;68.50
78407;BME280;67692;51.074;-1.790;2023-04-15T10:46:18;101471.28;;;9.19;68.20
78407;BME280;67692;51.074;-1.790;2023-04-15T10:48:52;101469.75;;;9.15;67.99
78407;BME280;67692;51.074;-1.790;2023-04-15T10:51:27;101476.13;;;9.25;69.20
78407;BME280;67692;51.074;-1.790;2023-04-15T10:53:55;101469.31;;;9.40;68.42
78407;BME280;67692;51.074;-1.790;2023-04-15T10:56:23;101465.53;;;9.47;67.79
78407;BME280;67692;51.074;-1.790;2023-04-15T10:58:50;101468.06;;;9.64;67.17
78407;BME280;67692;51.074;-1.790;2023-04-15T11:01:19;101469.25;;;9.74;66.79
78407;BME280;67692;51.074;-1.790;2023-04-15T11:03:48;101468.84;;;9.82;66.63
78407;BME280;67692;51.074;-1.790;2023-04-15T11:06:15;101475.28;;;9.91;66.67
78407;BME280;67692;51.074;-1.790;2023-04-15T11:08:56;101476.69;;;9.96;67.09
78407;BME280;67692;51.074;-1.790;2023-04-15T11:12:05;101479.81;;;10.03;66.52
78407;BME280;67692;51.074;-1.790;2023-04-15T11:14:33;101483.88;;;10.07;64.84
78407;BME280;67692;51.074;-1.790;2023-04-15T11:17:02;101482.78;;;10.11;64.81
78407;BME280;67692;51.074;-1.790;2023-04-15T11:19:35;101490.81;;;10.06;64.15
78407;BME280;67692;51.074;-1.790;2023-04-15T11:22:06;101492.09;;;9.99;64.75
78407;BME280;67692;51.074;-1.790;2023-04-15T11:24:32;101505.16;;;9.96;64.18
78407;BME280;67692;51.074;-1.790;2023-04-15T11:27:00;101505.84;;;10.00;63.20
78407;BME280;67692;51.074;-1.790;2023-04-15T11:29:28;101501.53;;;10.16;63.80
78407;BME280;67692;51.074;-1.790;2023-04-15T11:32:04;101522.16;;;10.33;64.92
78407;BME280;67692;51.074;-1.790;2023-04-15T11:34:31;101511.16;;;10.12;64.05
78407;BME280;67692;51.074;-1.790;2023-04-15T11:37:03;101511.03;;;10.16;65.09
78407;BME280;67692;51.074;-1.790;2023-04-15T11:39:29;101516.78;;;10.21;64.24
78407;BME280;67692;51.074;-1.790;2023-04-15T11:41:56;101516.91;;;10.35;63.89
78407;BME280;67692;51.074;-1.790;2023-04-15T11:44:22;101521.16;;;10.52;63.74
78407;BME280;67692;51.074;-1.790;2023-04-15T11:46:49;101520.47;;;10.64;62.97
78407;BME280;67692;51.074;-1.790;2023-04-15T11:49:27;101515.88;;;10.53;63.53
78407;BME280;67692;51.074;-1.790;2023-04-15T11:51:53;101511.63;;;10.52;63.25
78407;BME280;67692;51.074;-1.790;2023-04-15T11:54:20;101513.06;;;10.58;62.41
78407;BME280;67692;51.074;-1.790;2023-04-15T11:56:49;101521.56;;;10.60;63.23
78407;BME280;67692;51.074;-1.790;2023-04-15T11:59:16;101522.84;;;10.83;62.84
78407;BME280;67692;51.074;-1.790;2023-04-15T12:01:43;101519.66;;;10.93;61.21
78407;BME280;67692;51.074;-1.790;2023-04-15T12:04:12;101530.47;;;11.16;61.96
78407;BME280;67692;51.074;-1.790;2023-04-15T12:06:40;101531.13;;;11.19;62.14
78407;BME280;67692;51.074;-1.790;2023-04-15T12:09:08;101527.84;;;11.31;60.59
78407;BME280;67692;51.074;-1.790;2023-04-15T12:11:41;101532.56;;;11.39;61.05
78407;BME280;67692;51.074;-1.790;2023-04-15T12:14:18;101524.22;;;11.34;60.38
78407;BME280;67692;51.074;-1.790;2023-04-15T12:16:47;101535.31;;;11.22;61.79
78407;BME280;67692;51.074;-1.790;2023-04-15T12:19:16;101530.56;;;11.14;60.49
78407;BME280;67692;51.074;-1.790;2023-04-15T12:21:46;101542.56;;;11.01;58.94
78407;BME280;67692;51.074;-1.790;2023-04-15T12:24:13;101537.22;;;11.04;59.76
78407;BME280;67692;51.074;-1.790;2023-04-15T12:26:44;101541.94;;;11.12;58.70
78407;BME280;67692;51.074;-1.790;2023-04-15T12:29:13;101533.03;;;11.46;59.99
78407;BME280;67692;51.074;-1.790;2023-04-15T12:31:53;101543.97;;;11.65;60.16
78407;BME280;67692;51.074;-1.790;2023-04-15T12:34:25;101544.63;;;11.69;60.06
78407;BME280;67692;51.074;-1.790;2023-04-15T12:36:55;101548.16;;;11.68;60.28
78407;BME280;67692;51.074;-1.790;2023-04-15T12:39:22;101543.16;;;11.65;60.81
78407;BME280;67692;51.074;-1.790;2023-04-15T12:41:49;101554.16;;;11.68;60.30
78407;BME280;67692;51.074;-1.790;2023-04-15T12:44:16;101548.53;;;11.61;59.42
78407;BME280;67692;51.074;-1.790;2023-04-15T12:46:45;101557.59;;;11.54;59.66
78407;BME280;67692;51.074;-1.790;2023-04-15T12:49:11;101564.97;;;11.32;59.97
78407;BME280;67692;51.074;-1.790;2023-04-15T12:51:40;101553.19;;;11.26;58.67